Terminal Aerodrome Forecast
Issued by NWS

Home | Current Version | Previous Version | Graphics & Text | Print | Product List | Glossary On
Versions: 1 2 3 4 5 6 7 8 9 10 11 12 13 14 15 16 17 18 19 20 21 22
000
FTUS43 KOAX 121000 AAA
TAFCDR
TAF AMD
KCDR 121014Z 1210/1306 VRB05KT 6SM BR VCSH BKN015
      TEMPO 1210/1212 3SM -RASN BR BKN009
     FM121200 23005KT P6SM SKC
     FM121800 19010KT P6SM SKC=

USA.gov is the U.S. government's official web portal to all federal, state and local government web resources and services.